createdAt,value
2017-05-29T00:02:08.208Z,20.50
2017-05-29T00:04:37.608Z,20.40
2017-05-29T00:07:05.983Z,20.40
2017-05-29T00:09:34.360Z,20.40
2017-05-29T00:12:02.739Z,20.40
2017-05-29T00:14:31.021Z,20.30
2017-05-29T00:16:59.436Z,20.30
2017-05-29T00:19:26.948Z,20.30
2017-05-29T00:21:55.295Z,20.30
2017-05-29T00:24:23.667Z,20.30
2017-05-29T00:26:51.952Z,20.20
2017-05-29T00:29:20.328Z,20.20
2017-05-29T00:31:48.704Z,20.20
2017-05-29T00:34:17.085Z,20.10
2017-05-29T00:36:45.464Z,20.10
2017-05-29T00:39:13.776Z,20.00
2017-05-29T00:41:42.059Z,19.90
2017-05-29T00:44:10.340Z,19.90
2017-05-29T00:46:38.681Z,19.80
2017-05-29T00:49:07.060Z,19.80
2017-05-29T00:51:35.427Z,19.70
2017-05-29T00:54:04.120Z,19.70
2017-05-29T00:56:32.501Z,19.60
2017-05-29T00:59:00.783Z,19.50
2017-05-29T01:01:29.152Z,19.60
2017-05-29T01:03:57.442Z,19.60
2017-05-29T01:06:25.817Z,19.60
2017-05-29T01:08:54.131Z,19.60
2017-05-29T01:11:22.454Z,19.60
2017-05-29T01:13:50.956Z,19.50
2017-05-29T01:16:19.329Z,19.60
2017-05-29T01:18:47.660Z,19.60
2017-05-29T01:21:16.017Z,19.50
2017-05-29T01:23:44.308Z,19.50
2017-05-29T01:26:12.720Z,19.50
2017-05-29T01:28:41.153Z,19.50
2017-05-29T01:31:09.523Z,19.50
2017-05-29T01:33:37.833Z,19.50
2017-05-29T01:36:06.124Z,19.50
2017-05-29T01:38:34.669Z,19.50
2017-05-29T01:41:02.953Z,19.50
2017-05-29T01:43:31.321Z,19.50
2017-05-29T01:45:59.627Z,19.60
2017-05-29T01:48:27.980Z,19.60
2017-05-29T01:50:56.308Z,19.60
2017-05-29T01:53:24.612Z,19.60
2017-05-29T01:55:52.903Z,19.60
2017-05-29T01:58:21.293Z,19.70
2017-05-29T02:00:49.576Z,19.70
2017-05-29T02:03:17.946Z,19.70
2017-05-29T02:05:46.324Z,19.70
2017-05-29T02:08:14.641Z,19.70
2017-05-29T02:10:42.982Z,19.80
2017-05-29T02:13:11.293Z,19.80
2017-05-29T02:15:39.611Z,19.70
2017-05-29T02:18:08.012Z,19.70
2017-05-29T02:20:36.319Z,19.70
2017-05-29T02:23:04.604Z,19.70
2017-05-29T02:25:32.949Z,19.80
2017-05-29T02:28:01.236Z,19.70
2017-05-29T02:30:29.602Z,19.70
2017-05-29T02:32:57.970Z,19.70
2017-05-29T02:35:26.364Z,19.70
2017-05-29T02:37:54.740Z,19.70
2017-05-29T02:40:23.148Z,19.80
2017-05-29T02:42:51.508Z,19.70
2017-05-29T02:45:19.792Z,19.70
2017-05-29T02:47:48.258Z,19.70
2017-05-29T02:50:16.542Z,19.70
2017-05-29T02:52:44.820Z,19.70
2017-05-29T02:55:13.500Z,19.70
2017-05-29T02:57:41.785Z,19.60
2017-05-29T03:00:10.073Z,19.60
2017-05-29T03:02:38.434Z,19.60
2017-05-29T03:05:06.812Z,19.60
2017-05-29T03:07:35.192Z,19.60
2017-05-29T03:10:03.672Z,19.60
2017-05-29T03:12:32.051Z,19.60
2017-05-29T03:15:00.331Z,19.60
2017-05-29T03:17:28.708Z,19.60
2017-05-29T03:19:57.097Z,19.60
2017-05-29T03:22:25.468Z,19.60
2017-05-29T03:24:53.845Z,19.60
2017-05-29T03:27:22.156Z,19.60
2017-05-29T03:29:50.508Z,19.60
2017-05-29T03:32:18.879Z,19.60
2017-05-29T03:34:47.266Z,19.60
2017-05-29T03:37:15.644Z,19.60
2017-05-29T03:39:43.956Z,19.60
2017-05-29T03:42:12.249Z,19.60
2017-05-29T03:44:40.552Z,19.60
2017-05-29T03:47:08.957Z,19.60
2017-05-29T03:49:38.143Z,19.60
2017-05-29T03:52:06.533Z,19.50
2017-05-29T03:54:34.840Z,19.50
2017-05-29T03:57:03.191Z,19.50
2017-05-29T03:59:31.564Z,19.50
2017-05-29T04:01:59.848Z,19.50
2017-05-29T04:04:28.330Z,19.50
2017-05-29T04:06:56.704Z,19.50
2017-05-29T04:09:25.012Z,19.50
2017-05-29T04:11:53.336Z,19.60
2017-05-29T04:14:21.615Z,19.60
2017-05-29T04:16:49.926Z,19.60
2017-05-29T04:19:18.398Z,19.70
2017-05-29T04:21:46.681Z,19.70
2017-05-29T04:24:15.055Z,19.70
2017-05-29T04:26:43.372Z,19.80
2017-05-29T04:29:11.679Z,19.80
2017-05-29T04:31:39.959Z,19.90
2017-05-29T04:34:08.464Z,19.90
2017-05-29T04:36:36.846Z,19.90
2017-05-29T04:39:05.224Z,20.00
2017-05-29T04:41:33.532Z,20.00
2017-05-29T04:44:01.886Z,20.00
2017-05-29T04:46:30.268Z,20.00
2017-05-29T04:48:58.648Z,20.10
2017-05-29T04:51:27.029Z,20.20
2017-05-29T04:53:55.403Z,20.20
2017-05-29T04:56:23.724Z,20.30
2017-05-29T04:58:52.044Z,20.30
2017-05-29T05:01:20.325Z,20.40
2017-05-29T05:03:47.861Z,20.40
2017-05-29T05:06:16.147Z,20.60
2017-05-29T05:08:44.641Z,20.70
2017-05-29T05:11:12.923Z,20.80
2017-05-29T05:13:41.208Z,20.90
2017-05-29T05:16:09.572Z,20.80
2017-05-29T05:18:37.951Z,20.90
2017-05-29T05:21:06.336Z,21.00
2017-05-29T05:23:34.640Z,21.10
2017-05-29T05:26:02.920Z,21.20
2017-05-29T05:28:31.208Z,21.30
2017-05-29T05:30:59.649Z,21.40
2017-05-29T05:33:28.129Z,21.40
2017-05-29T05:35:56.504Z,21.50
2017-05-29T05:38:25.093Z,21.50
2017-05-29T05:40:53.376Z,21.50
2017-05-29T05:43:21.743Z,21.70
2017-05-29T05:45:50.129Z,21.80
2017-05-29T05:48:18.505Z,22.00
2017-05-29T05:50:46.788Z,22.00
2017-05-29T05:53:15.094Z,22.20
2017-05-29T05:55:43.403Z,22.30
2017-05-29T05:58:11.695Z,22.40
2017-05-29T06:00:40.023Z,22.20
2017-05-29T06:03:08.312Z,22.20
2017-05-29T06:05:36.596Z,22.30
2017-05-29T06:08:05.357Z,22.50
2017-05-29T06:10:33.649Z,22.50
2017-05-29T06:13:01.927Z,22.50
2017-05-29T06:15:30.256Z,22.60
2017-05-29T06:17:58.733Z,22.80
2017-05-29T06:20:27.028Z,22.70
2017-05-29T06:22:55.356Z,22.80
2017-05-29T06:25:23.642Z,22.80
2017-05-29T06:27:52.039Z,22.90
2017-05-29T06:30:20.420Z,23.00
2017-05-29T06:32:48.797Z,23.10
2017-05-29T06:35:17.383Z,23.10
2017-05-29T06:37:45.669Z,23.20
2017-05-29T06:40:14.040Z,23.30
2017-05-29T06:42:42.420Z,23.40
2017-05-29T06:45:10.712Z,23.50
2017-05-29T06:47:39.135Z,23.70
2017-05-29T06:50:07.420Z,23.70
2017-05-29T06:52:35.704Z,23.80
2017-05-29T06:55:04.013Z,23.70
2017-05-29T06:57:32.297Z,23.80
2017-05-29T07:00:00.615Z,23.90
2017-05-29T07:02:28.900Z,24.00
2017-05-29T07:04:57.273Z,23.90
2017-05-29T07:07:25.660Z,23.90
2017-05-29T07:09:54.032Z,23.90
2017-05-29T07:12:22.421Z,24.00
2017-05-29T07:14:50.788Z,24.00
2017-05-29T07:17:19.172Z,24.20
2017-05-29T07:19:47.465Z,24.20
2017-05-29T07:22:15.756Z,24.20
2017-05-29T07:24:44.068Z,24.20
2017-05-29T07:27:12.348Z,24.30
2017-05-29T07:29:40.635Z,24.30
2017-05-29T07:32:08.948Z,24.40
2017-05-29T07:34:37.315Z,24.50
2017-05-29T07:37:05.799Z,24.70
2017-05-29T07:39:34.129Z,24.70
2017-05-29T07:42:02.411Z,24.70
2017-05-29T07:44:30.733Z,24.80
2017-05-29T07:46:59.147Z,25.00
2017-05-29T07:49:27.488Z,25.00
2017-05-29T07:51:55.863Z,25.10
2017-05-29T07:54:24.188Z,25.30
2017-05-29T07:56:52.472Z,25.40
2017-05-29T07:59:20.755Z,25.40
2017-05-29T08:01:49.385Z,25.40
2017-05-29T08:04:17.672Z,25.30
2017-05-29T08:06:45.951Z,25.40
2017-05-29T08:09:14.318Z,25.50
2017-05-29T08:11:42.697Z,25.70
2017-05-29T08:14:11.072Z,25.70
2017-05-29T08:16:39.569Z,25.70
2017-05-29T08:19:07.843Z,25.90
2017-05-29T08:21:39.086Z,26.00
2017-05-29T08:24:07.367Z,26.10
2017-05-29T08:26:35.639Z,26.20
2017-05-29T08:29:03.956Z,26.40
2017-05-29T08:31:32.237Z,26.50
2017-05-29T08:34:00.523Z,26.50
2017-05-29T08:36:28.951Z,26.60
2017-05-29T08:38:57.324Z,26.60
2017-05-29T08:41:25.599Z,26.80
2017-05-29T08:43:53.894Z,26.90
2017-05-29T08:46:22.179Z,27.10
2017-05-29T08:48:50.492Z,27.10
2017-05-29T08:51:18.807Z,27.20
2017-05-29T08:53:47.135Z,27.20
2017-05-29T08:56:15.543Z,27.30
2017-05-29T08:58:43.828Z,27.40
2017-05-29T09:01:12.150Z,27.60
2017-05-29T09:03:39.787Z,27.50
2017-05-29T09:06:08.066Z,27.80
2017-05-29T09:08:36.376Z,27.90
2017-05-29T09:11:05.080Z,27.90
2017-05-29T09:13:33.385Z,27.90
2017-05-29T09:16:01.659Z,28.10
2017-05-29T09:18:30.068Z,28.30
2017-05-29T09:20:58.375Z,28.40
2017-05-29T09:23:26.651Z,28.50
2017-05-29T09:25:54.924Z,28.60
2017-05-29T09:28:23.252Z,28.60
2017-05-29T09:30:51.535Z,28.70
2017-05-29T09:33:19.839Z,28.70
2017-05-29T09:35:48.120Z,28.70
2017-05-29T09:38:16.424Z,28.70
2017-05-29T09:40:44.761Z,28.70
2017-05-29T09:43:13.033Z,28.80
2017-05-29T09:45:41.352Z,28.80
2017-05-29T09:48:09.687Z,28.80
2017-05-29T09:50:38.075Z,28.90
2017-05-29T09:53:06.452Z,29.00
2017-05-29T09:55:36.062Z,29.20
2017-05-29T09:58:04.347Z,29.30
2017-05-29T10:00:32.637Z,29.30
2017-05-29T10:03:01.200Z,29.40
2017-05-29T10:05:29.476Z,29.40
2017-05-29T10:07:57.757Z,29.40
2017-05-29T10:10:26.237Z,29.50
2017-05-29T10:12:54.508Z,29.50
2017-05-29T10:15:22.792Z,29.50
2017-05-29T10:17:51.107Z,29.50
2017-05-29T10:20:19.443Z,29.60
2017-05-29T10:22:47.727Z,29.70
2017-05-29T10:25:16.304Z,29.80
2017-05-29T10:27:44.588Z,29.80
2017-05-29T10:30:12.859Z,29.80
2017-05-29T10:32:41.162Z,29.90
2017-05-29T10:35:09.439Z,30.10
2017-05-29T10:37:37.845Z,30.20
2017-05-29T10:40:06.178Z,30.30
2017-05-29T10:42:34.460Z,30.30
2017-05-29T10:45:02.824Z,30.40
2017-05-29T10:47:31.303Z,30.40
2017-05-29T10:49:59.689Z,30.40
2017-05-29T10:52:27.966Z,30.50
2017-05-29T10:54:56.507Z,30.50
2017-05-29T10:57:24.832Z,30.50
2017-05-29T10:59:53.103Z,30.60
2017-05-29T11:02:21.409Z,30.70
2017-05-29T11:04:49.680Z,30.70
2017-05-29T11:07:17.961Z,30.70
2017-05-29T11:09:46.295Z,30.80
2017-05-29T11:12:14.573Z,30.80
2017-05-29T11:14:42.844Z,30.90
2017-05-29T11:17:11.147Z,30.90
2017-05-29T11:19:39.460Z,31.00
2017-05-29T11:22:07.736Z,31.10
2017-05-29T11:24:36.021Z,31.20
2017-05-29T11:27:04.347Z,31.20
2017-05-29T11:29:32.661Z,31.20
2017-05-29T11:32:00.969Z,31.30
2017-05-29T11:34:29.302Z,31.30
2017-05-29T11:36:57.614Z,31.40
2017-05-29T11:39:25.906Z,31.40
2017-05-29T11:41:54.797Z,31.50
2017-05-29T11:44:23.080Z,31.60
2017-05-29T11:46:51.360Z,31.70
2017-05-29T11:49:19.673Z,31.70
2017-05-29T11:51:47.952Z,31.70
2017-05-29T11:54:16.229Z,31.70
2017-05-29T11:56:44.532Z,31.80
2017-05-29T11:59:12.848Z,31.70
2017-05-29T12:01:41.125Z,31.70
2017-05-29T12:04:09.397Z,31.70
2017-05-29T12:06:37.914Z,31.70
2017-05-29T12:09:06.188Z,31.70
2017-05-29T12:11:34.469Z,31.70
2017-05-29T12:14:02.779Z,31.70
2017-05-29T12:16:31.052Z,31.80
2017-05-29T12:18:59.641Z,31.80
2017-05-29T12:21:27.915Z,31.90
2017-05-29T12:23:56.188Z,31.90
2017-05-29T12:26:24.487Z,31.80
2017-05-29T12:28:52.754Z,31.90
2017-05-29T12:31:21.322Z,31.80
2017-05-29T12:33:49.625Z,31.80
2017-05-29T12:36:17.908Z,31.90
2017-05-29T12:38:45.447Z,31.90
2017-05-29T12:41:13.761Z,32.00
2017-05-29T12:43:42.032Z,31.90
2017-05-29T12:46:11.280Z,32.10
2017-05-29T12:48:39.683Z,32.10
2017-05-29T12:51:07.968Z,32.10
2017-05-29T12:53:36.255Z,32.10
2017-05-29T12:56:04.605Z,32.00
2017-05-29T12:58:32.884Z,32.00
2017-05-29T13:01:01.165Z,32.00
2017-05-29T13:03:29.463Z,32.00
2017-05-29T13:05:57.762Z,32.10
2017-05-29T13:08:26.035Z,32.10
2017-05-29T13:10:54.331Z,32.20
2017-05-29T13:13:22.690Z,32.10
2017-05-29T13:15:51.071Z,32.20
2017-05-29T13:18:19.769Z,32.10
2017-05-29T13:20:48.142Z,32.10
2017-05-29T13:23:16.516Z,32.10
2017-05-29T13:25:45.175Z,32.20
2017-05-29T13:28:13.480Z,32.10
2017-05-29T13:30:41.804Z,32.20
2017-05-29T13:33:10.161Z,32.30
2017-05-29T13:35:38.528Z,32.20
2017-05-29T13:38:06.849Z,32.20
2017-05-29T13:40:35.392Z,32.30
2017-05-29T13:43:03.693Z,32.30
2017-05-29T13:45:32.029Z,32.30
2017-05-29T13:48:00.338Z,32.50
2017-05-29T13:50:28.896Z,32.50
2017-05-29T13:52:57.281Z,32.50
2017-05-29T13:55:25.658Z,32.60
2017-05-29T13:57:54.032Z,32.60
2017-05-29T14:00:22.416Z,32.70
2017-05-29T14:02:50.791Z,32.70
2017-05-29T14:05:19.103Z,32.70
2017-05-29T14:07:47.384Z,32.90
2017-05-29T14:10:15.705Z,32.90
2017-05-29T14:12:43.977Z,33.00
2017-05-29T14:15:12.258Z,33.10
2017-05-29T14:17:40.780Z,33.20
2017-05-29T14:20:09.056Z,33.20
2017-05-29T14:22:37.406Z,33.10
2017-05-29T14:25:05.688Z,33.10
2017-05-29T14:27:33.969Z,33.20
2017-05-29T14:30:02.276Z,33.30
2017-05-29T14:32:30.592Z,33.30
2017-05-29T14:34:58.869Z,33.30
2017-05-29T14:37:27.224Z,33.30
2017-05-29T14:39:55.609Z,33.30
2017-05-29T14:42:23.984Z,33.40
2017-05-29T14:44:52.288Z,33.40
2017-05-29T14:47:19.800Z,33.40
2017-05-29T14:49:48.212Z,33.60
2017-05-29T14:52:16.488Z,33.70
2017-05-29T14:54:44.763Z,33.80
2017-05-29T14:57:13.241Z,33.80
2017-05-29T14:59:41.660Z,33.80
2017-05-29T15:02:09.999Z,33.80
2017-05-29T15:04:38.295Z,34.00
2017-05-29T15:07:06.655Z,34.10
2017-05-29T15:09:34.958Z,34.20
2017-05-29T15:12:03.472Z,34.40
2017-05-29T15:14:31.792Z,34.50
2017-05-29T15:17:00.076Z,34.50
2017-05-29T15:19:28.420Z,34.60
2017-05-29T15:21:56.721Z,34.60
2017-05-29T15:24:24.258Z,34.60
2017-05-29T15:26:52.877Z,34.80
2017-05-29T15:29:21.164Z,35.00
2017-05-29T15:31:49.567Z,35.20
2017-05-29T15:34:18.009Z,35.20
2017-05-29T15:36:46.383Z,35.20
2017-05-29T15:39:14.660Z,35.30
2017-05-29T15:41:43.152Z,35.30
2017-05-29T15:44:11.532Z,35.40
2017-05-29T15:46:39.908Z,35.50
2017-05-29T15:49:08.384Z,35.40
2017-05-29T15:51:36.763Z,35.40
2017-05-29T15:54:05.049Z,35.60
2017-05-29T15:56:33.419Z,35.70
2017-05-29T15:59:01.696Z,35.80
2017-05-29T16:01:29.969Z,35.80
2017-05-29T16:03:58.974Z,36.00
2017-05-29T16:06:27.243Z,36.00
2017-05-29T16:08:55.524Z,36.00
2017-05-29T16:11:24.472Z,36.00
2017-05-29T16:13:52.748Z,36.10
2017-05-29T16:16:21.019Z,36.10
2017-05-29T16:18:49.551Z,36.00
2017-05-29T16:21:17.822Z,36.10
2017-05-29T16:23:46.093Z,36.20
2017-05-29T16:26:14.415Z,36.20
2017-05-29T16:28:42.682Z,36.30
2017-05-29T16:31:11.060Z,36.40
2017-05-29T16:33:39.740Z,36.60
2017-05-29T16:36:08.021Z,36.70
2017-05-29T16:38:36.297Z,36.70
2017-05-29T16:41:04.596Z,36.70
2017-05-29T16:43:33.056Z,36.80
2017-05-29T16:46:01.332Z,36.90
2017-05-29T16:48:29.600Z,37.00
2017-05-29T16:50:57.894Z,37.00
2017-05-29T16:53:26.159Z,37.10
2017-05-29T16:55:54.452Z,37.30
2017-05-29T16:58:22.848Z,37.30
2017-05-29T17:00:51.124Z,37.30
2017-05-29T17:03:19.391Z,37.20
2017-05-29T17:05:47.243Z,37.20
2017-05-29T17:08:15.508Z,37.20
2017-05-29T17:10:43.784Z,36.80
2017-05-29T17:13:12.096Z,37.00
2017-05-29T17:15:40.372Z,36.90
2017-05-29T17:18:08.644Z,36.90
2017-05-29T17:20:36.960Z,36.60
2017-05-29T17:23:05.236Z,36.50
2017-05-29T17:25:33.512Z,36.50
2017-05-29T17:28:01.829Z,36.20
2017-05-29T17:30:30.172Z,35.90
2017-05-29T17:32:58.452Z,35.50
2017-05-29T17:35:26.729Z,35.00
2017-05-29T17:37:55.044Z,34.60
2017-05-29T17:40:23.324Z,34.10
2017-05-29T17:42:51.600Z,33.70
2017-05-29T17:45:19.943Z,33.30
2017-05-29T17:47:48.252Z,32.90
2017-05-29T17:50:16.536Z,32.60
2017-05-29T17:52:44.926Z,32.40
2017-05-29T17:55:13.241Z,32.10
2017-05-29T17:57:41.573Z,31.90
2017-05-29T18:00:09.849Z,31.70
2017-05-29T18:02:38.162Z,31.60
2017-05-29T18:05:06.568Z,31.30
2017-05-29T18:07:35.144Z,31.10
2017-05-29T18:10:03.415Z,30.90
2017-05-29T18:12:31.688Z,30.80
2017-05-29T18:14:59.984Z,30.60
2017-05-29T18:17:28.266Z,30.40
2017-05-29T18:19:56.639Z,30.20
2017-05-29T18:22:24.917Z,30.10
2017-05-29T18:24:53.396Z,30.00
2017-05-29T18:27:21.868Z,29.80
2017-05-29T18:29:50.256Z,29.70
2017-05-29T18:32:18.640Z,29.70
2017-05-29T18:34:47.008Z,29.60
2017-05-29T18:37:15.391Z,29.50
2017-05-29T18:39:43.772Z,29.50
2017-05-29T18:42:12.147Z,29.40
2017-05-29T18:44:40.521Z,29.40
2017-05-29T18:47:08.865Z,29.40
2017-05-29T18:49:37.135Z,29.30
2017-05-29T18:52:05.860Z,29.30
2017-05-29T18:54:34.246Z,29.20
2017-05-29T18:57:02.535Z,29.10
2017-05-29T18:59:30.845Z,29.00
2017-05-29T19:01:59.160Z,28.90
2017-05-29T19:04:27.566Z,28.80
2017-05-29T19:06:55.849Z,28.70
2017-05-29T19:09:24.164Z,28.70
2017-05-29T19:11:52.545Z,28.60
2017-05-29T19:14:20.828Z,28.50
2017-05-29T19:16:49.307Z,28.40
2017-05-29T19:19:17.638Z,28.40
2017-05-29T19:21:45.941Z,28.30
2017-05-29T19:24:14.228Z,28.30
2017-05-29T19:26:42.535Z,28.20
2017-05-29T19:29:10.844Z,28.20
2017-05-29T19:31:39.140Z,28.10
2017-05-29T19:34:07.611Z,28.00
2017-05-29T19:36:35.940Z,28.00
2017-05-29T19:39:04.224Z,28.00
2017-05-29T19:41:32.800Z,27.90
2017-05-29T19:44:01.081Z,27.90
2017-05-29T19:46:29.416Z,27.80
2017-05-29T19:48:57.744Z,27.80
2017-05-29T19:51:26.030Z,27.80
2017-05-29T19:53:54.311Z,27.70
2017-05-29T19:56:22.760Z,27.60
2017-05-29T19:58:51.044Z,27.60
2017-05-29T20:01:19.340Z,27.60
2017-05-29T20:03:47.659Z,27.50
2017-05-29T20:06:16.027Z,27.40
2017-05-29T20:08:44.352Z,27.30
2017-05-29T20:11:12.639Z,27.20
2017-05-29T20:13:41.008Z,27.20
2017-05-29T20:16:09.404Z,27.10
2017-05-29T20:18:37.716Z,27.10
2017-05-29T20:21:06.481Z,27.00
2017-05-29T20:23:34.791Z,27.00
2017-05-29T20:26:03.072Z,27.00
2017-05-29T20:28:31.481Z,26.90
2017-05-29T20:30:59.761Z,26.90
2017-05-29T20:33:28.044Z,26.90
2017-05-29T20:35:56.349Z,26.80
2017-05-29T20:38:24.652Z,26.80
2017-05-29T20:40:52.931Z,26.70
2017-05-29T20:43:21.212Z,26.70
2017-05-29T20:45:49.520Z,26.70
2017-05-29T20:48:17.900Z,26.70
2017-05-29T20:50:46.280Z,26.60
2017-05-29T20:53:14.660Z,26.60
2017-05-29T20:55:42.992Z,26.60
2017-05-29T20:58:11.318Z,26.50
2017-05-29T21:00:39.691Z,26.40
2017-05-29T21:03:08.072Z,26.40
2017-05-29T21:05:36.364Z,26.30
2017-05-29T21:08:04.727Z,26.30
2017-05-29T21:10:33.219Z,26.20
2017-05-29T21:13:01.592Z,26.10
2017-05-29T21:15:29.256Z,26.10
2017-05-29T21:17:57.536Z,26.00
2017-05-29T21:20:25.844Z,25.90
2017-05-29T21:22:54.391Z,25.90
2017-05-29T21:25:22.674Z,25.90
2017-05-29T21:27:51.057Z,25.90
2017-05-29T21:30:19.429Z,25.90
2017-05-29T21:32:47.710Z,25.80
2017-05-29T21:35:16.085Z,25.80
2017-05-29T21:37:44.465Z,25.80
2017-05-29T21:40:12.771Z,25.70
2017-05-29T21:42:41.051Z,25.70
2017-05-29T21:45:09.396Z,25.70
2017-05-29T21:47:37.679Z,25.60
2017-05-29T21:50:06.263Z,25.60
2017-05-29T21:52:34.688Z,25.60
2017-05-29T21:55:03.227Z,25.60
2017-05-29T21:57:31.812Z,25.50
2017-05-29T22:00:00.213Z,25.50
2017-05-29T22:02:28.591Z,25.40
2017-05-29T22:04:57.176Z,25.40
2017-05-29T22:07:25.460Z,25.30
2017-05-29T22:09:53.826Z,25.30
2017-05-29T22:12:22.151Z,25.20
2017-05-29T22:14:50.568Z,25.10
2017-05-29T22:17:18.949Z,25.00
2017-05-29T22:19:47.332Z,25.00
2017-05-29T22:22:15.616Z,24.90
2017-05-29T22:24:43.986Z,24.80
2017-05-29T22:27:12.361Z,24.80
2017-05-29T22:29:40.688Z,24.70
2017-05-29T22:32:09.041Z,24.60
2017-05-29T22:34:37.409Z,24.60
2017-05-29T22:37:05.781Z,24.50
2017-05-29T22:39:34.256Z,24.50
2017-05-29T22:42:02.605Z,24.40
2017-05-29T22:44:30.889Z,24.40
2017-05-29T22:46:59.265Z,24.30
2017-05-29T22:49:27.641Z,24.30
2017-05-29T22:51:56.016Z,24.30
2017-05-29T22:54:24.391Z,24.20
2017-05-29T22:56:52.875Z,24.10
2017-05-29T22:59:21.163Z,24.10
2017-05-29T23:01:49.640Z,24.00
2017-05-29T23:04:18.017Z,23.90
2017-05-29T23:06:46.306Z,23.80
2017-05-29T23:09:14.669Z,23.80
2017-05-29T23:11:42.954Z,23.70
2017-05-29T23:14:11.242Z,23.70
2017-05-29T23:16:39.564Z,23.70
2017-05-29T23:19:07.885Z,23.70
2017-05-29T23:21:36.257Z,23.60
2017-05-29T23:24:04.584Z,23.60
2017-05-29T23:26:32.916Z,23.60
2017-05-29T23:29:01.211Z,23.50
2017-05-29T23:31:29.532Z,23.50
2017-05-29T23:33:57.815Z,23.40
2017-05-29T23:36:26.104Z,23.40
2017-05-29T23:38:54.410Z,23.40
2017-05-29T23:41:22.721Z,23.30
2017-05-29T23:43:51.065Z,23.30
2017-05-29T23:46:19.436Z,23.30
2017-05-29T23:48:47.720Z,23.30
2017-05-29T23:51:16.196Z,23.20
2017-05-29T23:53:44.526Z,23.30
2017-05-29T23:56:13.166Z,23.20
2017-05-29T23:58:41.451Z,23.20
